John M Carras — SVBK5 — position and weather

sailwx.info

Track history (hours):
 
Tides and Currents Weather Stations Pressure Air Temp Water Temp Dewpoint Dewpoint Depression Visibility Wind Speed Wind Dir Waves Ship Positions

John M Carras

Last reported at 2015-Aug-25 08:16 UTC. Time now 2015-Aug-28 22:19 UTC.
Position N 60°57' E 019°15'.

Length 229 m; draft 14.5 m.

Type: Cargo ship. MMSI: 241150000.

Date/timePositionNaut miles runAvg speedWind from/ knotsBaromVisibWave heightAir tempDewpointWater temp
2015-Aug-25 08:16N 60°57' E 019°15'811.6
2015-Aug-25 07:33N 60°49' E 019°11'1211.6
2015-Aug-25 06:32N 60°38' E 019°06'1111.7
2015-Aug-25 05:33N 60°26' E 019°02'1211.5
2015-Aug-25 04:28N 60°14' E 019°04'1111.8
2015-Aug-25 03:33N 60°05' E 019°16'1211.7
2015-Aug-25 02:32N 59°56' E 019°31'1111.5
2015-Aug-25 01:33N 59°47' E 019°45'1110.5
2015-Aug-25 00:31N 59°38' E 019°58'28 9.4
2015-Aug-24 21:32N 59°11' E 019°44'3511.7
2015-Aug-24 18:33N 58°42' E 019°08'1511.7
2015-Aug-24 17:18N 58°29' E 018°54'1011.8
2015-Aug-24 16:29N 58°21' E 018°44'3911.7
2015-Aug-24 13:09N 57°47' E 018°08'1811.5
2015-Aug-24 11:33N 57°31' E 017°51'1211.9
2015-Aug-24 10:33N 57°20' E 017°42'1211.9
2015-Aug-24 09:33N 57°09' E 017°34'1111.5
2015-Aug-24 08:33N 56°58' E 017°27'1211.5
2015-Aug-24 07:33N 56°48' E 017°19'1211.6
2015-Aug-24 06:33N 56°37' E 017°12'1111.4
2015-Aug-24 05:33N 56°26' E 017°05'1111.5
2015-Aug-24 04:33N 56°15' E 016°59'1111.1
2015-Aug-24 03:33N 56°05' E 016°50'1111.1
2015-Aug-24 02:33N 55°60' E 016°33'1111.1
2015-Aug-24 01:33N 55°54' E 016°16'1111.1
2015-Aug-24 00:33N 55°48' E 015°59'1111.0
2015-Aug-23 23:33N 55°43' E 015°42'1111.4
2015-Aug-23 22:33N 55°37' E 015°24'1111.4
2015-Aug-23 21:33N 55°32' E 015°06'1111.1
2015-Aug-23 20:33N 55°27' E 014°49'1111.0
2015-Aug-23 19:33N 55°20' E 014°34'1111.0
2015-Aug-23 18:33N 55°11' E 014°22'1111.2
2015-Aug-23 17:33N 55°03' E 014°09'1110.9
2015-Aug-23 16:33N 54°58' E 013°52'1110.7
2015-Aug-23 15:33N 54°54' E 013°35'1511.0
2015-Aug-23 14:12N 54°50' E 013°10'1011.1
2015-Aug-23 13:20N 54°47' E 012°54'810.5
2015-Aug-23 12:33N 54°44' E 012°41'9 8.9
2015-Aug-23 11:33N 54°40' E 012°27'9 9.2
2015-Aug-23 10:33N 54°34' E 012°15'10 9.7
2015-Aug-23 09:33N 54°25' E 012°09'1111.0
2015-Aug-23 08:33N 54°25' E 011°50'1111.2
2015-Aug-23 07:33N 54°29' E 011°32'1111.3
2015-Aug-23 06:33N 54°34' E 011°14'1111.1
2015-Aug-23 05:33N 54°37' E 010°56'10 9.4
2015-Aug-23 04:29N 54°46' E 010°48'12 9.7
2015-Aug-23 03:17N 54°57' E 010°55'16 9.2
2015-Aug-23 01:33N 55°12' E 011°05'10 9.7
2015-Aug-23 00:33N 55°22' E 011°02'1010.5
2015-Aug-22 23:34N 55°30' E 010°52'1010.1
2015-Aug-22 22:33N 55°40' E 010°46'1110.6
2015-Aug-22 21:33N 55°51' E 010°49'3110.3
2015-Aug-22 18:31N 56°16' E 011°22'1111.3
2015-Aug-22 17:33N 56°25' E 011°31'1111.4
2015-Aug-22 16:33N 56°35' E 011°42'1110.9
2015-Aug-22 15:33N 56°45' E 011°51'1111.0
2015-Aug-22 14:33N 56°56' E 011°46'1110.8
2015-Aug-22 13:33N 57°06' E 011°39'1110.9
2015-Aug-22 12:33N 57°16' E 011°32'1110.8
2015-Aug-22 11:33N 57°26' E 011°24'1110.8
2015-Aug-22 10:33N 57°34' E 011°11'1110.7
2015-Aug-22 09:34N 57°41' E 010°56'1111.2
2015-Aug-22 08:33N 57°47' E 010°38'1211.7
2015-Aug-22 07:33N 57°48' E 010°16'1211.7
2015-Aug-22 06:33N 57°47' E 009°54'1212.0
2015-Aug-22 05:33N 57°44' E 009°33'1212.1
2015-Aug-22 04:33N 57°39' E 009°12'1212.3
2015-Aug-22 03:33N 57°34' E 008°51'1312.5
2015-Aug-22 02:33N 57°29' E 008°30'1312.5
2015-Aug-22 01:33N 57°23' E 008°09'1212.1
2015-Aug-22 00:33N 57°18' E 007°49'20011.8
2015-Aug-21 07:33N 54°22' E 005°01'1211.4
2015-Aug-21 06:30N 54°11' E 004°51'1111.2
2015-Aug-21 05:33N 54°03' E 004°39'16411.7
2015-Aug-20 15:31N 51°39' E 002°27'1212.8
2015-Aug-20 14:33N 51°30' E 002°16'1212.1
2015-Aug-20 13:33N 51°19' E 002°08'1111.1
2015-Aug-20 12:34N 51°11' E 001°55'1010.1
2015-Aug-20 11:33N 51°05' E 001°42'9 9.3
2015-Aug-20 10:33N 50°58' E 001°32'9 9.2
2015-Aug-20 09:33N 50°50' E 001°26'12 9.7
2015-Aug-20 08:20N 50°39' E 001°16'  
Track history (hours):
 
Tides and Currents Weather Stations Pressure Air Temp Water Temp Dewpoint Dewpoint Depression Visibility Wind Speed Wind Dir Waves Ship Positions

John M Carras

Last reported at 2015-Aug-25 08:16 UTC. Time now 2015-Aug-28 22:19 UTC.
Position N 60°57' E 019°15'.

Length 229 m; draft 14.5 m.

Type: Cargo ship. MMSI: 241150000.

Date/timePositionNaut miles runAvg speedWind from/ knotsBaromVisibWave heightAir tempDewpointWater temp
2015-Aug-25 08:16N 60°57' E 019°15'811.6
2015-Aug-25 07:33N 60°49' E 019°11'1211.6
2015-Aug-25 06:32N 60°38' E 019°06'1111.7
2015-Aug-25 05:33N 60°26' E 019°02'1211.5
2015-Aug-25 04:28N 60°14' E 019°04'1111.8
2015-Aug-25 03:33N 60°05' E 019°16'1211.7
2015-Aug-25 02:32N 59°56' E 019°31'1111.5
2015-Aug-25 01:33N 59°47' E 019°45'1110.5
2015-Aug-25 00:31N 59°38' E 019°58'28 9.4
2015-Aug-24 21:32N 59°11' E 019°44'3511.7
2015-Aug-24 18:33N 58°42' E 019°08'1511.7
2015-Aug-24 17:18N 58°29' E 018°54'1011.8
2015-Aug-24 16:29N 58°21' E 018°44'3911.7
2015-Aug-24 13:09N 57°47' E 018°08'1811.5
2015-Aug-24 11:33N 57°31' E 017°51'1211.9
2015-Aug-24 10:33N 57°20' E 017°42'1211.9
2015-Aug-24 09:33N 57°09' E 017°34'1111.5
2015-Aug-24 08:33N 56°58' E 017°27'1211.5
2015-Aug-24 07:33N 56°48' E 017°19'1211.6
2015-Aug-24 06:33N 56°37' E 017°12'1111.4
2015-Aug-24 05:33N 56°26' E 017°05'1111.5
2015-Aug-24 04:33N 56°15' E 016°59'1111.1
2015-Aug-24 03:33N 56°05' E 016°50'1111.1
2015-Aug-24 02:33N 55°60' E 016°33'1111.1
2015-Aug-24 01:33N 55°54' E 016°16'1111.1
2015-Aug-24 00:33N 55°48' E 015°59'1111.0
2015-Aug-23 23:33N 55°43' E 015°42'1111.4
2015-Aug-23 22:33N 55°37' E 015°24'1111.4
2015-Aug-23 21:33N 55°32' E 015°06'1111.1
2015-Aug-23 20:33N 55°27' E 014°49'1111.0
2015-Aug-23 19:33N 55°20' E 014°34'1111.0
2015-Aug-23 18:33N 55°11' E 014°22'1111.2
2015-Aug-23 17:33N 55°03' E 014°09'1110.9
2015-Aug-23 16:33N 54°58' E 013°52'1110.7
2015-Aug-23 15:33N 54°54' E 013°35'1511.0
2015-Aug-23 14:12N 54°50' E 013°10'1011.1
2015-Aug-23 13:20N 54°47' E 012°54'810.5
2015-Aug-23 12:33N 54°44' E 012°41'9 8.9
2015-Aug-23 11:33N 54°40' E 012°27'9 9.2
2015-Aug-23 10:33N 54°34' E 012°15'10 9.7
2015-Aug-23 09:33N 54°25' E 012°09'1111.0
2015-Aug-23 08:33N 54°25' E 011°50'1111.2
2015-Aug-23 07:33N 54°29' E 011°32'1111.3
2015-Aug-23 06:33N 54°34' E 011°14'1111.1
2015-Aug-23 05:33N 54°37' E 010°56'10 9.4
2015-Aug-23 04:29N 54°46' E 010°48'12 9.7
2015-Aug-23 03:17N 54°57' E 010°55'16 9.2
2015-Aug-23 01:33N 55°12' E 011°05'10 9.7
2015-Aug-23 00:33N 55°22' E 011°02'1010.5
2015-Aug-22 23:34N 55°30' E 010°52'1010.1
2015-Aug-22 22:33N 55°40' E 010°46'1110.6
2015-Aug-22 21:33N 55°51' E 010°49'3110.3
2015-Aug-22 18:31N 56°16' E 011°22'1111.3
2015-Aug-22 17:33N 56°25' E 011°31'1111.4
2015-Aug-22 16:33N 56°35' E 011°42'1110.9
2015-Aug-22 15:33N 56°45' E 011°51'1111.0
2015-Aug-22 14:33N 56°56' E 011°46'1110.8
2015-Aug-22 13:33N 57°06' E 011°39'1110.9
2015-Aug-22 12:33N 57°16' E 011°32'1110.8
2015-Aug-22 11:33N 57°26' E 011°24'1110.8
2015-Aug-22 10:33N 57°34' E 011°11'1110.7
2015-Aug-22 09:34N 57°41' E 010°56'1111.2
2015-Aug-22 08:33N 57°47' E 010°38'1211.7
2015-Aug-22 07:33N 57°48' E 010°16'1211.7
2015-Aug-22 06:33N 57°47' E 009°54'1212.0
2015-Aug-22 05:33N 57°44' E 009°33'1212.1
2015-Aug-22 04:33N 57°39' E 009°12'1212.3
2015-Aug-22 03:33N 57°34' E 008°51'1312.5
2015-Aug-22 02:33N 57°29' E 008°30'1312.5
2015-Aug-22 01:33N 57°23' E 008°09'1212.1
2015-Aug-22 00:33N 57°18' E 007°49'20011.8
2015-Aug-21 07:33N 54°22' E 005°01'1211.4
2015-Aug-21 06:30N 54°11' E 004°51'1111.2
2015-Aug-21 05:33N 54°03' E 004°39'16411.7
2015-Aug-20 15:31N 51°39' E 002°27'1212.8
2015-Aug-20 14:33N 51°30' E 002°16'1212.1
2015-Aug-20 13:33N 51°19' E 002°08'1111.1
2015-Aug-20 12:34N 51°11' E 001°55'1010.1
2015-Aug-20 11:33N 51°05' E 001°42'9 9.3
2015-Aug-20 10:33N 50°58' E 001°32'9 9.2
2015-Aug-20 09:33N 50°50' E 001°26'12 9.7
2015-Aug-20 08:20N 50°39' E 001°16'  

Dump ship's entire track history